sensor_id;sensor_type;location;lat;lon;timestamp;pressure;altitude;pressure_sealevel;temperature;humidity
21956;BME280;11142;49.930;8.606;2024-03-02T00:02:00;98859.13;;;6.65;100.00
21956;BME280;11142;49.930;8.606;2024-03-02T00:04:29;98863.88;;;6.71;100.00
21956;BME280;11142;49.930;8.606;2024-03-02T00:06:57;98852.22;;;6.66;100.00
21956;BME280;11142;49.930;8.606;2024-03-02T00:09:25;98855.72;;;6.65;100.00
21956;BME280;11142;49.930;8.606;2024-03-02T00:11:54;98842.09;;;6.63;100.00
21956;BME280;11142;49.930;8.606;2024-03-02T00:14:22;98840.88;;;6.56;100.00
21956;BME280;11142;49.930;8.606;2024-03-02T00:16:51;98847.84;;;6.54;100.00
21956;BME280;11142;49.930;8.606;2024-03-02T00:19:19;98845.28;;;6.66;100.00
21956;BME280;11142;49.930;8.606;2024-03-02T00:21:49;98838.59;;;6.51;100.00
21956;BME280;11142;49.930;8.606;2024-03-02T00:24:26;98835.50;;;6.33;100.00
21956;BME280;11142;49.930;8.606;2024-03-02T00:26:59;98819.22;;;6.33;100.00
21956;BME280;11142;49.930;8.606;2024-03-02T00:29:27;98813.34;;;6.18;100.00
21956;BME280;11142;49.930;8.606;2024-03-02T00:31:57;98794.44;;;5.93;100.00
21956;BME280;11142;49.930;8.606;2024-03-02T00:34:25;98790.50;;;6.00;100.00
21956;BME280;11142;49.930;8.606;2024-03-02T00:36:57;98784.56;;;5.99;100.00
21956;BME280;11142;49.930;8.606;2024-03-02T00:39:26;98788.47;;;5.92;100.00
21956;BME280;11142;49.930;8.606;2024-03-02T00:41:55;98787.94;;;6.00;100.00
21956;BME280;11142;49.930;8.606;2024-03-02T00:44:25;98788.47;;;5.92;100.00
21956;BME280;11142;49.930;8.606;2024-03-02T00:46:58;98783.97;;;5.81;100.00
21956;BME280;11142;49.930;8.606;2024-03-02T00:49:27;98781.91;;;5.74;100.00
21956;BME280;11142;49.930;8.606;2024-03-02T00:51:56;98786.63;;;5.67;100.00
21956;BME280;11142;49.930;8.606;2024-03-02T00:54:26;98780.84;;;5.64;100.00
21956;BME280;11142;49.930;8.606;2024-03-02T00:56:55;98787.97;;;5.73;100.00
21956;BME280;11142;49.930;8.606;2024-03-02T00:59:24;98782.09;;;5.71;100.00
21956;BME280;11142;49.930;8.606;2024-03-02T01:01:53;98788.47;;;5.65;100.00
21956;BME280;11142;49.930;8.606;2024-03-02T01:04:21;98790.97;;;5.79;100.00
21956;BME280;11142;49.930;8.606;2024-03-02T01:06:49;98790.88;;;5.81;100.00
21956;BME280;11142;49.930;8.606;2024-03-02T01:09:20;98794.91;;;5.85;100.00
21956;BME280;11142;49.930;8.606;2024-03-02T01:11:48;98802.47;;;6.01;100.00
21956;BME280;11142;49.930;8.606;2024-03-02T01:14:16;98816.69;;;6.06;100.00
21956;BME280;11142;49.930;8.606;2024-03-02T01:16:44;98824.13;;;5.84;100.00
21956;BME280;11142;49.930;8.606;2024-03-02T01:19:12;98799.59;;;4.70;100.00
21956;BME280;11142;49.930;8.606;2024-03-02T01:21:41;98783.81;;;4.48;100.00
21956;BME280;11142;49.930;8.606;2024-03-02T01:24:09;98771.16;;;4.45;100.00
21956;BME280;11142;49.930;8.606;2024-03-02T01:26:39;98768.41;;;4.76;100.00
21956;BME280;11142;49.930;8.606;2024-03-02T01:29:07;98780.13;;;4.94;100.00
21956;BME280;11142;49.930;8.606;2024-03-02T01:31:35;98778.31;;;4.25;100.00
21956;BME280;11142;49.930;8.606;2024-03-02T01:34:03;98761.25;;;4.10;100.00
21956;BME280;11142;49.930;8.606;2024-03-02T01:36:31;98753.06;;;3.90;100.00
21956;BME280;11142;49.930;8.606;2024-03-02T01:39:00;98743.41;;;3.79;100.00
21956;BME280;11142;49.930;8.606;2024-03-02T01:41:28;98732.34;;;3.93;100.00
21956;BME280;11142;49.930;8.606;2024-03-02T01:43:58;98724.75;;;4.19;100.00
21956;BME280;11142;49.930;8.606;2024-03-02T01:46:26;98717.38;;;4.70;100.00
21956;BME280;11142;49.930;8.606;2024-03-02T01:48:54;98731.44;;;5.05;100.00
21956;BME280;11142;49.930;8.606;2024-03-02T01:51:22;98741.97;;;5.15;100.00
21956;BME280;11142;49.930;8.606;2024-03-02T01:53:50;98740.75;;;5.20;100.00
21956;BME280;11142;49.930;8.606;2024-03-02T01:56:18;98743.16;;;4.82;100.00
21956;BME280;11142;49.930;8.606;2024-03-02T01:58:46;98732.59;;;4.73;100.00
21956;BME280;11142;49.930;8.606;2024-03-02T02:01:15;98723.66;;;4.66;100.00
21956;BME280;11142;49.930;8.606;2024-03-02T02:03:43;98718.09;;;4.86;100.00
21956;BME280;11142;49.930;8.606;2024-03-02T02:06:14;98713.53;;;4.77;100.00
21956;BME280;11142;49.930;8.606;2024-03-02T02:08:43;98709.03;;;4.80;100.00
21956;BME280;11142;49.930;8.606;2024-03-02T02:11:14;98708.06;;;4.96;100.00
21956;BME280;11142;49.930;8.606;2024-03-02T02:13:43;98710.56;;;4.97;100.00
21956;BME280;11142;49.930;8.606;2024-03-02T02:16:11;98720.25;;;5.06;100.00
21956;BME280;11142;49.930;8.606;2024-03-02T02:18:41;98730.22;;;5.11;100.00
21956;BME280;11142;49.930;8.606;2024-03-02T02:21:08;98730.66;;;5.17;100.00
21956;BME280;11142;49.930;8.606;2024-03-02T02:23:38;98745.91;;;4.79;100.00
21956;BME280;11142;49.930;8.606;2024-03-02T02:26:06;98743.22;;;4.95;100.00
21956;BME280;11142;49.930;8.606;2024-03-02T02:28:35;98735.50;;;4.95;100.00
21956;BME280;11142;49.930;8.606;2024-03-02T02:31:03;98746.97;;;5.04;100.00
21956;BME280;11142;49.930;8.606;2024-03-02T02:33:39;98741.91;;;5.02;100.00
21956;BME280;11142;49.930;8.606;2024-03-02T02:36:09;98743.19;;;5.09;100.00
21956;BME280;11142;49.930;8.606;2024-03-02T02:38:43;98735.38;;;5.11;100.00
21956;BME280;11142;49.930;8.606;2024-03-02T02:41:11;98750.00;;;4.96;100.00
21956;BME280;11142;49.930;8.606;2024-03-02T02:43:39;98747.78;;;5.04;100.00
21956;BME280;11142;49.930;8.606;2024-03-02T02:46:07;98742.13;;;4.99;100.00
21956;BME280;11142;49.930;8.606;2024-03-02T02:48:36;98732.41;;;4.90;100.00
21956;BME280;11142;49.930;8.606;2024-03-02T02:51:04;98737.19;;;4.82;100.00
21956;BME280;11142;49.930;8.606;2024-03-02T02:53:32;98731.44;;;4.78;100.00
21956;BME280;11142;49.930;8.606;2024-03-02T02:56:04;98723.41;;;4.83;100.00
21956;BME280;11142;49.930;8.606;2024-03-02T02:58:32;98719.03;;;4.85;100.00
21956;BME280;11142;49.930;8.606;2024-03-02T03:01:01;98709.66;;;4.84;100.00
21956;BME280;11142;49.930;8.606;2024-03-02T03:03:30;98712.75;;;4.89;100.00
21956;BME280;11142;49.930;8.606;2024-03-02T03:05:58;98711.25;;;4.99;100.00
21956;BME280;11142;49.930;8.606;2024-03-02T03:08:28;98715.09;;;5.06;100.00
21956;BME280;11142;49.930;8.606;2024-03-02T03:10:56;98718.41;;;5.08;100.00
21956;BME280;11142;49.930;8.606;2024-03-02T03:13:26;98725.59;;;5.03;100.00
21956;BME280;11142;49.930;8.606;2024-03-02T03:15:56;98728.88;;;5.05;100.00
21956;BME280;11142;49.930;8.606;2024-03-02T03:18:25;98732.56;;;5.01;100.00
21956;BME280;11142;49.930;8.606;2024-03-02T03:20:53;98726.69;;;4.99;100.00
21956;BME280;11142;49.930;8.606;2024-03-02T03:23:22;98732.13;;;4.95;100.00
21956;BME280;11142;49.930;8.606;2024-03-02T03:25:52;98730.69;;;4.76;100.00
21956;BME280;11142;49.930;8.606;2024-03-02T03:28:20;98729.53;;;4.40;100.00
21956;BME280;11142;49.930;8.606;2024-03-02T03:30:49;98718.13;;;4.58;100.00
21956;BME280;11142;49.930;8.606;2024-03-02T03:33:18;98717.00;;;4.76;100.00
21956;BME280;11142;49.930;8.606;2024-03-02T03:35:46;98717.56;;;4.81;100.00
21956;BME280;11142;49.930;8.606;2024-03-02T03:38:17;98716.84;;;4.65;100.00
21956;BME280;11142;49.930;8.606;2024-03-02T03:40:45;98720.63;;;4.59;100.00
21956;BME280;11142;49.930;8.606;2024-03-02T03:43:15;98718.53;;;4.52;100.00
21956;BME280;11142;49.930;8.606;2024-03-02T03:45:43;98721.00;;;4.53;100.00
21956;BME280;11142;49.930;8.606;2024-03-02T03:48:13;98726.75;;;4.57;100.00
21956;BME280;11142;49.930;8.606;2024-03-02T03:50:41;98725.28;;;4.67;100.00
21956;BME280;11142;49.930;8.606;2024-03-02T03:53:09;98733.88;;;4.80;100.00
21956;BME280;11142;49.930;8.606;2024-03-02T03:55:36;98739.66;;;4.83;100.00
21956;BME280;11142;49.930;8.606;2024-03-02T03:58:04;98738.88;;;4.55;100.00
21956;BME280;11142;49.930;8.606;2024-03-02T04:00:32;98732.00;;;3.99;100.00
21956;BME280;11142;49.930;8.606;2024-03-02T04:03:00;98716.38;;;3.88;100.00
21956;BME280;11142;49.930;8.606;2024-03-02T04:05:32;98706.53;;;4.24;100.00
21956;BME280;11142;49.930;8.606;2024-03-02T04:08:00;98701.63;;;4.62;100.00
21956;BME280;11142;49.930;8.606;2024-03-02T04:10:28;98706.72;;;4.76;100.00
21956;BME280;11142;49.930;8.606;2024-03-02T04:12:56;98714.94;;;4.95;100.00
21956;BME280;11142;49.930;8.606;2024-03-02T04:15:24;98717.28;;;5.12;100.00
21956;BME280;11142;49.930;8.606;2024-03-02T04:17:53;98724.03;;;5.27;100.00
21956;BME280;11142;49.930;8.606;2024-03-02T04:20:21;98731.66;;;5.29;100.00
21956;BME280;11142;49.930;8.606;2024-03-02T04:22:53;98733.09;;;5.06;100.00
21956;BME280;11142;49.930;8.606;2024-03-02T04:25:21;98737.03;;;4.85;100.00
21956;BME280;11142;49.930;8.606;2024-03-02T04:27:50;98731.56;;;4.63;100.00
21956;BME280;11142;49.930;8.606;2024-03-02T04:30:18;98734.22;;;4.33;100.00
21956;BME280;11142;49.930;8.606;2024-03-02T04:32:47;98720.47;;;4.06;100.00
21956;BME280;11142;49.930;8.606;2024-03-02T04:35:16;98708.88;;;3.85;100.00
21956;BME280;11142;49.930;8.606;2024-03-02T04:37:44;98709.94;;;3.81;100.00
21956;BME280;11142;49.930;8.606;2024-03-02T04:40:14;98702.22;;;3.22;100.00
21956;BME280;11142;49.930;8.606;2024-03-02T04:42:42;98692.13;;;3.19;100.00
21956;BME280;11142;49.930;8.606;2024-03-02T04:45:10;98698.47;;;3.28;100.00
21956;BME280;11142;49.930;8.606;2024-03-02T04:47:38;98685.13;;;3.67;100.00
21956;BME280;11142;49.930;8.606;2024-03-02T04:50:07;98693.41;;;4.00;100.00
21956;BME280;11142;49.930;8.606;2024-03-02T04:52:36;98710.19;;;4.06;100.00
21956;BME280;11142;49.930;8.606;2024-03-02T04:55:04;98723.19;;;4.17;100.00
21956;BME280;11142;49.930;8.606;2024-03-02T04:57:57;98730.25;;;4.13;100.00
21956;BME280;11142;49.930;8.606;2024-03-02T05:00:26;98732.84;;;4.27;100.00
21956;BME280;11142;49.930;8.606;2024-03-02T05:03:00;98739.78;;;4.25;100.00
21956;BME280;11142;49.930;8.606;2024-03-02T05:05:28;98743.00;;;4.15;100.00
21956;BME280;11142;49.930;8.606;2024-03-02T05:07:56;98747.22;;;4.16;100.00
21956;BME280;11142;49.930;8.606;2024-03-02T05:10:24;98754.91;;;4.16;100.00
21956;BME280;11142;49.930;8.606;2024-03-02T05:12:51;98760.88;;;4.16;100.00
21956;BME280;11142;49.930;8.606;2024-03-02T05:15:28;98757.94;;;4.08;100.00
21956;BME280;11142;49.930;8.606;2024-03-02T05:17:56;98762.34;;;4.20;100.00
21956;BME280;11142;49.930;8.606;2024-03-02T05:20:26;98763.50;;;3.87;100.00
21956;BME280;11142;49.930;8.606;2024-03-02T05:22:54;98754.22;;;3.84;100.00
21956;BME280;11142;49.930;8.606;2024-03-02T05:25:22;98755.19;;;4.11;100.00
21956;BME280;11142;49.930;8.606;2024-03-02T05:27:50;98763.72;;;4.12;100.00
21956;BME280;11142;49.930;8.606;2024-03-02T05:30:18;98769.22;;;4.20;100.00
21956;BME280;11142;49.930;8.606;2024-03-02T05:32:47;98770.84;;;4.07;100.00
21956;BME280;11142;49.930;8.606;2024-03-02T05:35:18;98776.91;;;4.06;100.00
21956;BME280;11142;49.930;8.606;2024-03-02T05:37:46;98776.38;;;4.15;100.00
21956;BME280;11142;49.930;8.606;2024-03-02T05:40:14;98771.16;;;4.31;100.00
21956;BME280;11142;49.930;8.606;2024-03-02T05:42:43;98777.31;;;4.56;100.00
21956;BME280;11142;49.930;8.606;2024-03-02T05:45:11;98769.69;;;4.83;100.00
21956;BME280;11142;49.930;8.606;2024-03-02T05:47:44;98785.00;;;4.85;100.00
21956;BME280;11142;49.930;8.606;2024-03-02T05:50:15;98793.09;;;4.78;100.00
21956;BME280;11142;49.930;8.606;2024-03-02T05:52:43;98789.97;;;4.73;100.00
21956;BME280;11142;49.930;8.606;2024-03-02T05:55:11;98801.59;;;4.79;100.00
21956;BME280;11142;49.930;8.606;2024-03-02T05:57:40;98810.44;;;4.75;100.00
21956;BME280;11142;49.930;8.606;2024-03-02T06:00:22;98813.19;;;4.58;100.00
21956;BME280;11142;49.930;8.606;2024-03-02T06:02:52;98812.06;;;4.48;100.00
21956;BME280;11142;49.930;8.606;2024-03-02T06:05:21;98800.53;;;4.55;100.00
21956;BME280;11142;49.930;8.606;2024-03-02T06:07:52;98808.75;;;4.60;100.00
21956;BME280;11142;49.930;8.606;2024-03-02T06:10:20;98811.06;;;4.64;100.00
21956;BME280;11142;49.930;8.606;2024-03-02T06:12:48;98813.38;;;4.69;100.00
21956;BME280;11142;49.930;8.606;2024-03-02T06:15:20;98818.78;;;4.78;100.00
21956;BME280;11142;49.930;8.606;2024-03-02T06:17:48;98837.31;;;4.83;100.00
21956;BME280;11142;49.930;8.606;2024-03-02T06:20:17;98826.66;;;4.47;100.00
21956;BME280;11142;49.930;8.606;2024-03-02T06:22:47;98834.59;;;4.14;100.00
21956;BME280;11142;49.930;8.606;2024-03-02T06:25:16;98827.81;;;3.84;100.00
21956;BME280;11142;49.930;8.606;2024-03-02T06:27:47;98821.94;;;3.82;100.00
21956;BME280;11142;49.930;8.606;2024-03-02T06:30:16;98816.19;;;3.92;100.00
21956;BME280;11142;49.930;8.606;2024-03-02T06:32:44;98812.38;;;3.99;100.00
21956;BME280;11142;49.930;8.606;2024-03-02T06:35:12;98809.88;;;4.27;100.00
21956;BME280;11142;49.930;8.606;2024-03-02T06:37:40;98808.03;;;4.86;100.00
21956;BME280;11142;49.930;8.606;2024-03-02T06:40:10;98827.31;;;5.07;100.00
21956;BME280;11142;49.930;8.606;2024-03-02T06:42:39;98834.59;;;5.27;100.00
21956;BME280;11142;49.930;8.606;2024-03-02T06:45:07;98835.56;;;5.39;100.00
21956;BME280;11142;49.930;8.606;2024-03-02T06:47:35;98841.59;;;5.25;100.00
21956;BME280;11142;49.930;8.606;2024-03-02T06:50:05;98845.84;;;5.12;100.00
21956;BME280;11142;49.930;8.606;2024-03-02T06:52:33;98849.53;;;4.94;100.00
21956;BME280;11142;49.930;8.606;2024-03-02T06:55:03;98851.06;;;4.82;100.00
21956;BME280;11142;49.930;8.606;2024-03-02T06:57:34;98849.34;;;4.83;100.00
21956;BME280;11142;49.930;8.606;2024-03-02T07:00:02;98846.50;;;4.59;100.00
21956;BME280;11142;49.930;8.606;2024-03-02T07:02:32;98831.25;;;4.28;100.00
21956;BME280;11142;49.930;8.606;2024-03-02T07:05:00;98838.19;;;4.26;100.00
21956;BME280;11142;49.930;8.606;2024-03-02T07:07:29;98838.22;;;4.40;100.00
21956;BME280;11142;49.930;8.606;2024-03-02T07:09:58;98835.94;;;4.50;100.00
21956;BME280;11142;49.930;8.606;2024-03-02T07:12:29;98839.78;;;4.57;100.00
21956;BME280;11142;49.930;8.606;2024-03-02T07:15:02;98838.22;;;4.82;100.00
21956;BME280;11142;49.930;8.606;2024-03-02T07:17:51;98853.47;;;5.00;100.00
21956;BME280;11142;49.930;8.606;2024-03-02T07:20:20;98854.19;;;5.02;100.00
21956;BME280;11142;49.930;8.606;2024-03-02T07:22:50;98857.25;;;4.94;100.00
21956;BME280;11142;49.930;8.606;2024-03-02T07:25:18;98862.38;;;4.80;100.00
21956;BME280;11142;49.930;8.606;2024-03-02T07:27:50;98869.91;;;4.83;100.00
21956;BME280;11142;49.930;8.606;2024-03-02T07:30:24;98866.75;;;4.64;100.00
21956;BME280;11142;49.930;8.606;2024-03-02T07:32:52;98866.75;;;4.64;100.00
21956;BME280;11142;49.930;8.606;2024-03-02T07:35:20;98872.47;;;4.83;100.00
21956;BME280;11142;49.930;8.606;2024-03-02T07:37:49;98865.50;;;5.13;100.00
21956;BME280;11142;49.930;8.606;2024-03-02T07:40:17;98861.84;;;5.44;100.00
21956;BME280;11142;49.930;8.606;2024-03-02T07:42:49;98874.59;;;5.60;100.00
21956;BME280;11142;49.930;8.606;2024-03-02T07:45:28;98866.00;;;6.00;100.00
21956;BME280;11142;49.930;8.606;2024-03-02T07:47:59;98886.78;;;6.24;100.00
21956;BME280;11142;49.930;8.606;2024-03-02T07:50:27;98889.06;;;6.41;100.00
21956;BME280;11142;49.930;8.606;2024-03-02T07:52:55;98887.34;;;6.67;100.00
21956;BME280;11142;49.930;8.606;2024-03-02T07:55:23;98886.38;;;7.31;100.00
21956;BME280;11142;49.930;8.606;2024-03-02T07:57:51;98885.13;;;8.20;100.00
21956;BME280;11142;49.930;8.606;2024-03-02T08:00:20;98893.06;;;8.98;100.00
21956;BME280;11142;49.930;8.606;2024-03-02T08:02:53;98914.59;;;9.65;100.00
21956;BME280;11142;49.930;8.606;2024-03-02T08:05:21;98933.22;;;10.13;100.00
21956;BME280;11142;49.930;8.606;2024-03-02T08:07:52;98936.22;;;10.61;100.00
21956;BME280;11142;49.930;8.606;2024-03-02T08:10:20;98952.78;;;11.11;100.00
21956;BME280;11142;49.930;8.606;2024-03-02T08:12:51;98953.28;;;11.56;100.00
21956;BME280;11142;49.930;8.606;2024-03-02T08:15:19;98966.03;;;11.68;100.00
21956;BME280;11142;49.930;8.606;2024-03-02T08:17:49;98975.63;;;11.68;100.00
21956;BME280;11142;49.930;8.606;2024-03-02T08:20:18;98979.63;;;11.72;100.00
21956;BME280;11142;49.930;8.606;2024-03-02T08:22:46;98975.81;;;11.76;100.00
21956;BME280;11142;49.930;8.606;2024-03-02T08:25:16;98984.63;;;11.94;100.00
21956;BME280;11142;49.930;8.606;2024-03-02T08:27:44;98976.94;;;11.93;100.00
21956;BME280;11142;49.930;8.606;2024-03-02T08:30:13;98987.94;;;12.06;100.00
21956;BME280;11142;49.930;8.606;2024-03-02T08:32:43;98983.88;;;12.32;100.00
21956;BME280;11142;49.930;8.606;2024-03-02T08:35:12;98984.28;;;12.56;100.00
21956;BME280;11142;49.930;8.606;2024-03-02T08:37:43;98973.19;;;12.83;100.00
21956;BME280;11142;49.930;8.606;2024-03-02T08:40:11;98984.72;;;13.09;98.38
21956;BME280;11142;49.930;8.606;2024-03-02T08:42:44;98983.31;;;13.24;98.65
21956;BME280;11142;49.930;8.606;2024-03-02T08:45:16;98980.19;;;12.92;97.16
21956;BME280;11142;49.930;8.606;2024-03-02T08:47:57;98990.72;;;12.91;98.16
21956;BME280;11142;49.930;8.606;2024-03-02T08:50:34;98986.19;;;13.21;97.78
21956;BME280;11142;49.930;8.606;2024-03-02T08:53:05;98999.69;;;14.08;97.18
21956;BME280;11142;49.930;8.606;2024-03-02T08:55:35;98990.41;;;14.94;95.16
21956;BME280;11142;49.930;8.606;2024-03-02T08:58:05;98999.81;;;15.05;88.91
21956;BME280;11142;49.930;8.606;2024-03-02T09:00:34;98992.22;;;14.94;86.90
21956;BME280;11142;49.930;8.606;2024-03-02T09:03:03;98992.84;;;15.39;89.11
21956;BME280;11142;49.930;8.606;2024-03-02T09:05:31;98997.84;;;16.26;84.22
21956;BME280;11142;49.930;8.606;2024-03-02T09:07:59;98989.94;;;16.68;80.00
21956;BME280;11142;49.930;8.606;2024-03-02T09:10:33;99001.34;;;16.51;78.31
21956;BME280;11142;49.930;8.606;2024-03-02T09:13:02;98990.44;;;15.46;83.07
21956;BME280;11142;49.930;8.606;2024-03-02T09:15:30;98991.72;;;16.59;78.65
21956;BME280;11142;49.930;8.606;2024-03-02T09:18:02;98994.22;;;16.27;78.57
21956;BME280;11142;49.930;8.606;2024-03-02T09:20:50;98992.53;;;17.16;71.99
21956;BME280;11142;49.930;8.606;2024-03-02T09:23:18;98998.22;;;16.39;68.79
21956;BME280;11142;49.930;8.606;2024-03-02T09:25:48;98991.19;;;17.28;70.46
21956;BME280;11142;49.930;8.606;2024-03-02T09:28:16;98984.94;;;18.31;67.70
21956;BME280;11142;49.930;8.606;2024-03-02T09:30:44;98985.16;;;19.13;62.97
21956;BME280;11142;49.930;8.606;2024-03-02T09:33:13;98983.09;;;19.08;64.88
21956;BME280;11142;49.930;8.606;2024-03-02T09:35:44;98980.38;;;19.16;60.40
21956;BME280;11142;49.930;8.606;2024-03-02T09:38:14;98981.81;;;18.58;61.71
21956;BME280;11142;49.930;8.606;2024-03-02T09:40:44;98977.59;;;18.80;63.20
21956;BME280;11142;49.930;8.606;2024-03-02T09:43:15;98981.53;;;18.76;60.32
21956;BME280;11142;49.930;8.606;2024-03-02T09:45:47;98979.78;;;18.91;60.79
21956;BME280;11142;49.930;8.606;2024-03-02T09:48:18;98984.06;;;19.44;61.29
21956;BME280;11142;49.930;8.606;2024-03-02T09:50:54;98981.09;;;19.62;58.73
21956;BME280;11142;49.930;8.606;2024-03-02T09:53:25;98978.06;;;18.98;59.17
21956;BME280;11142;49.930;8.606;2024-03-02T09:55:58;98970.59;;;18.65;61.51
21956;BME280;11142;49.930;8.606;2024-03-02T09:58:31;98962.41;;;18.37;63.50
21956;BME280;11142;49.930;8.606;2024-03-02T10:01:00;98970.38;;;18.74;61.28
21956;BME280;11142;49.930;8.606;2024-03-02T10:03:29;98966.97;;;18.43;59.66
21956;BME280;11142;49.930;8.606;2024-03-02T10:06:21;98973.00;;;18.74;57.25
21956;BME280;11142;49.930;8.606;2024-03-02T10:08:55;98972.31;;;18.27;57.83
21956;BME280;11142;49.930;8.606;2024-03-02T10:11:28;98964.19;;;17.83;58.36
21956;BME280;11142;49.930;8.606;2024-03-02T10:14:06;98959.59;;;18.16;61.54
21956;BME280;11142;49.930;8.606;2024-03-02T10:16:40;98959.38;;;18.93;61.25
21956;BME280;11142;49.930;8.606;2024-03-02T10:19:17;98961.69;;;19.26;57.26
21956;BME280;11142;49.930;8.606;2024-03-02T10:21:47;98967.50;;;19.36;57.98
21956;BME280;11142;49.930;8.606;2024-03-02T10:24:19;98964.69;;;19.96;59.82
21956;BME280;11142;49.930;8.606;2024-03-02T10:26:53;98958.34;;;19.17;53.19
21956;BME280;11142;49.930;8.606;2024-03-02T10:29:29;98949.03;;;19.58;54.11
21956;BME280;11142;49.930;8.606;2024-03-02T10:32:02;98951.56;;;19.81;54.60
21956;BME280;11142;49.930;8.606;2024-03-02T10:34:33;98953.53;;;20.44;51.63
21956;BME280;11142;49.930;8.606;2024-03-02T10:37:06;98949.75;;;20.53;48.93
21956;BME280;11142;49.930;8.606;2024-03-02T10:39:39;98940.16;;;20.67;49.40
21956;BME280;11142;49.930;8.606;2024-03-02T10:42:14;98943.09;;;21.06;49.96
21956;BME280;11142;49.930;8.606;2024-03-02T10:44:48;98942.34;;;22.35;49.39
21956;BME280;11142;49.930;8.606;2024-03-02T10:47:19;98942.75;;;24.14;46.19
21956;BME280;11142;49.930;8.606;2024-03-02T10:49:53;98941.03;;;23.82;41.86
21956;BME280;11142;49.930;8.606;2024-03-02T10:52:25;98938.16;;;21.93;43.19
21956;BME280;11142;49.930;8.606;2024-03-02T10:54:54;98941.94;;;24.01;42.85
21956;BME280;11142;49.930;8.606;2024-03-02T10:57:27;98938.34;;;27.17;38.39
21956;BME280;11142;49.930;8.606;2024-03-02T11:00:12;98941.41;;;29.19;32.32
21956;BME280;11142;49.930;8.606;2024-03-02T11:02:56;98939.44;;;28.47;32.61
21956;BME280;11142;49.930;8.606;2024-03-02T11:05:33;98944.41;;;30.52;29.30
21956;BME280;11142;49.930;8.606;2024-03-02T11:08:12;98946.63;;;32.58;26.69
21956;BME280;11142;49.930;8.606;2024-03-02T11:10:48;98944.38;;;33.51;25.73
21956;BME280;11142;49.930;8.606;2024-03-02T11:13:27;98935.81;;;32.33;27.46
21956;BME280;11142;49.930;8.606;2024-03-02T11:16:05;98938.28;;;32.65;25.50
21956;BME280;11142;49.930;8.606;2024-03-02T11:18:41;98933.72;;;32.81;26.48
21956;BME280;11142;49.930;8.606;2024-03-02T11:21:11;98936.56;;;34.19;25.14
21956;BME280;11142;49.930;8.606;2024-03-02T11:23:40;98937.00;;;34.75;23.11
21956;BME280;11142;49.930;8.606;2024-03-02T11:26:17;98925.81;;;33.50;24.91
21956;BME280;11142;49.930;8.606;2024-03-02T11:28:46;98922.19;;;29.60;26.06
21956;BME280;11142;49.930;8.606;2024-03-02T11:31:17;98914.25;;;27.12;29.45
21956;BME280;11142;49.930;8.606;2024-03-02T11:33:46;98916.44;;;28.46;29.12
21956;BME280;11142;49.930;8.606;2024-03-02T11:36:17;98917.69;;;27.99;28.59
21956;BME280;11142;49.930;8.606;2024-03-02T11:38:52;98907.78;;;29.61;30.12
21956;BME280;11142;49.930;8.606;2024-03-02T11:41:21;98909.28;;;31.65;25.97
21956;BME280;11142;49.930;8.606;2024-03-02T11:43:49;98903.72;;;30.02;26.56
21956;BME280;11142;49.930;8.606;2024-03-02T11:46:22;98898.81;;;28.45;29.76
21956;BME280;11142;49.930;8.606;2024-03-02T11:48:58;98885.41;;;27.09;31.21
21956;BME280;11142;49.930;8.606;2024-03-02T11:51:27;98885.78;;;26.36;33.73
21956;BME280;11142;49.930;8.606;2024-03-02T11:53:56;98878.69;;;26.83;32.66
21956;BME280;11142;49.930;8.606;2024-03-02T11:56:28;98875.69;;;28.68;29.43
21956;BME280;11142;49.930;8.606;2024-03-02T11:59:07;98877.91;;;29.91;28.39
21956;BME280;11142;49.930;8.606;2024-03-02T12:01:37;98873.53;;;30.65;27.06
21956;BME280;11142;49.930;8.606;2024-03-02T12:04:07;98881.53;;;32.21;25.11
21956;BME280;11142;49.930;8.606;2024-03-02T12:06:40;98867.00;;;33.23;24.26
21956;BME280;11142;49.930;8.606;2024-03-02T12:09:10;98869.91;;;35.26;23.76
21956;BME280;11142;49.930;8.606;2024-03-02T12:11:40;98869.59;;;37.64;21.59
21956;BME280;11142;49.930;8.606;2024-03-02T12:14:11;98864.06;;;39.24;18.43
21956;BME280;11142;49.930;8.606;2024-03-02T12:16:45;98865.97;;;37.68;18.62
21956;BME280;11142;49.930;8.606;2024-03-02T12:19:13;98863.09;;;36.13;19.49
21956;BME280;11142;49.930;8.606;2024-03-02T12:21:44;98846.06;;;35.04;20.24
21956;BME280;11142;49.930;8.606;2024-03-02T12:24:14;98841.19;;;33.12;21.65
21956;BME280;11142;49.930;8.606;2024-03-02T12:26:44;98839.44;;;30.29;24.47
21956;BME280;11142;49.930;8.606;2024-03-02T12:29:13;98838.41;;;31.50;24.43
21956;BME280;11142;49.930;8.606;2024-03-02T12:31:45;98828.22;;;30.00;24.65
21956;BME280;11142;49.930;8.606;2024-03-02T12:34:14;98826.06;;;29.97;25.04
21956;BME280;11142;49.930;8.606;2024-03-02T12:36:44;98827.59;;;30.46;25.70
21956;BME280;11142;49.930;8.606;2024-03-02T12:39:21;98817.97;;;25.86;29.08
21956;BME280;11142;49.930;8.606;2024-03-02T12:41:56;98816.31;;;26.15;30.43
21956;BME280;11142;49.930;8.606;2024-03-02T12:44:27;98816.50;;;28.92;26.74
21956;BME280;11142;49.930;8.606;2024-03-02T12:46:58;98829.91;;;34.18;23.00
21956;BME280;11142;49.930;8.606;2024-03-02T12:49:28;98833.94;;;35.92;22.12
21956;BME280;11142;49.930;8.606;2024-03-02T12:51:58;98830.66;;;35.76;21.49
21956;BME280;11142;49.930;8.606;2024-03-02T12:54:35;98822.78;;;37.50;19.49
21956;BME280;11142;49.930;8.606;2024-03-02T12:57:03;98829.09;;;38.61;18.74
21956;BME280;11142;49.930;8.606;2024-03-02T12:59:32;98822.09;;;36.57;19.95
21956;BME280;11142;49.930;8.606;2024-03-02T13:02:04;98808.31;;;34.81;21.24
21956;BME280;11142;49.930;8.606;2024-03-02T13:04:33;98809.63;;;33.38;22.58
21956;BME280;11142;49.930;8.606;2024-03-02T13:07:01;98804.38;;;34.39;22.27
21956;BME280;11142;49.930;8.606;2024-03-02T13:09:31;98807.00;;;36.70;20.20
21956;BME280;11142;49.930;8.606;2024-03-02T13:12:01;98795.06;;;32.09;22.65
21956;BME280;11142;49.930;8.606;2024-03-02T13:14:32;98788.25;;;32.92;22.20
21956;BME280;11142;49.930;8.606;2024-03-02T13:17:01;98792.81;;;34.67;20.97